createdAt,value
2024-01-04T00:04:55.065Z,15.22
2024-01-04T00:09:58.669Z,15.23
2024-01-04T00:15:04.970Z,15.21
2024-01-04T00:20:11.073Z,15.22
2024-01-04T00:25:14.726Z,15.23
2024-01-04T00:30:20.217Z,15.22
2024-01-04T00:35:23.954Z,15.23
2024-01-04T00:40:27.563Z,15.21
2024-01-04T00:45:32.685Z,15.19
2024-01-04T00:50:36.326Z,15.21
2024-01-04T00:55:41.326Z,15.22
2024-01-04T01:00:46.393Z,15.20
2024-01-04T01:05:50.074Z,15.19
2024-01-04T01:10:53.719Z,15.21
2024-01-04T01:15:58.882Z,15.18
2024-01-04T01:21:03.700Z,15.18
2024-01-04T01:26:07.338Z,15.21
2024-01-04T01:31:12.381Z,15.18
2024-01-04T01:36:16.021Z,15.17
2024-01-04T01:41:19.657Z,15.18
2024-01-04T01:46:24.852Z,15.18
2024-01-04T01:51:28.752Z,15.18
2024-01-04T01:56:33.135Z,15.16
2024-01-04T02:01:38.185Z,15.16
2024-01-04T02:06:41.816Z,15.16
2024-01-04T02:11:46.653Z,15.15
2024-01-04T02:16:51.673Z,15.15
2024-01-04T02:21:55.275Z,15.14
2024-01-04T02:27:00.311Z,15.13
2024-01-04T02:32:03.911Z,15.14
2024-01-04T02:37:07.566Z,15.15
2024-01-04T02:42:12.641Z,15.14
2024-01-04T02:47:16.286Z,15.13
2024-01-04T02:52:19.881Z,15.13
2024-01-04T02:57:24.963Z,15.13
2024-01-04T03:02:28.596Z,15.12
2024-01-04T03:07:33.278Z,15.12
2024-01-04T03:12:39.212Z,15.11
2024-01-04T03:17:42.844Z,15.11
2024-01-04T03:22:46.477Z,15.11
2024-01-04T03:27:51.476Z,15.10
2024-01-04T03:32:55.394Z,15.12
2024-01-04T03:37:59.326Z,15.11
2024-01-04T03:43:05.366Z,15.10
2024-01-04T03:48:09.694Z,15.11
2024-01-04T03:53:13.356Z,15.09
2024-01-04T03:58:18.348Z,15.08
2024-01-04T04:03:22.041Z,15.09
2024-01-04T04:08:25.800Z,15.08
2024-01-04T04:13:31.946Z,15.08
2024-01-04T04:18:35.629Z,15.08
2024-01-04T04:23:39.504Z,15.08
2024-01-04T04:28:44.519Z,15.05
2024-01-04T04:33:48.956Z,15.08
2024-01-04T04:38:52.668Z,15.07
2024-01-04T04:43:57.704Z,15.07
2024-01-04T04:49:01.534Z,15.05
2024-01-04T04:54:05.454Z,15.02
2024-01-04T04:59:10.904Z,15.02
2024-01-04T05:04:14.819Z,15.02
2024-01-04T05:09:19.309Z,15.04
2024-01-04T05:14:24.456Z,15.02
2024-01-04T05:19:28.196Z,15.02
2024-01-04T05:24:31.863Z,15.01
2024-01-04T05:29:37.079Z,15.01
2024-01-04T05:34:40.873Z,15.01
2024-01-04T05:39:44.808Z,15.00
2024-01-04T05:44:49.917Z,15.02
2024-01-04T05:49:53.602Z,15.01
2024-01-04T05:54:57.336Z,14.98
2024-01-04T06:00:02.465Z,14.99
2024-01-04T06:05:07.032Z,14.98
2024-01-04T06:10:10.979Z,14.98
2024-01-04T06:15:16.386Z,14.98
2024-01-04T06:20:20.014Z,14.96
2024-01-04T06:25:23.584Z,14.97
2024-01-04T06:30:29.056Z,14.97
2024-01-04T06:35:32.828Z,14.96
2024-01-04T06:40:36.910Z,14.94
2024-01-04T06:45:41.987Z,14.93
2024-01-04T06:50:46.145Z,14.95
2024-01-04T06:55:49.745Z,14.93
2024-01-04T07:00:54.781Z,14.93
2024-01-04T07:05:58.461Z,14.94
2024-01-04T07:11:06.325Z,14.93
2024-01-04T07:16:11.643Z,14.91
2024-01-04T07:21:15.732Z,14.91
2024-01-04T07:26:19.367Z,14.92
2024-01-04T07:31:24.400Z,14.91
2024-01-04T07:36:28.146Z,14.91
2024-01-04T07:41:31.884Z,14.91
2024-01-04T07:46:36.895Z,14.91
2024-01-04T07:51:40.663Z,14.90
2024-01-04T07:56:44.386Z,14.88
2024-01-04T08:01:49.719Z,14.89
2024-01-04T08:06:53.372Z,14.89
2024-01-04T08:11:57.045Z,14.88
2024-01-04T08:17:02.061Z,14.87
2024-01-04T08:22:05.981Z,14.89
2024-01-04T08:27:09.617Z,14.87
2024-01-04T08:32:14.661Z,14.85
2024-01-04T08:37:20.116Z,14.86
2024-01-04T08:42:23.878Z,14.86
2024-01-04T08:47:28.960Z,14.85
2024-01-04T08:52:33.017Z,14.86
2024-01-04T08:57:36.583Z,14.85
2024-01-04T09:02:42.160Z,14.83
2024-01-04T09:07:45.825Z,14.81
2024-01-04T09:12:49.460Z,14.83
2024-01-04T09:17:56.016Z,14.83
2024-01-04T09:22:59.876Z,14.82
2024-01-04T09:28:03.975Z,14.82
2024-01-04T09:33:09.971Z,14.82
2024-01-04T09:38:13.670Z,14.81
2024-01-04T09:43:17.632Z,14.78
2024-01-04T09:48:29.333Z,14.80
2024-01-04T09:53:38.723Z,14.78
2024-01-04T09:58:42.472Z,14.78
2024-01-04T10:03:50.099Z,14.77
2024-01-04T10:08:58.764Z,14.79
2024-01-04T10:14:02.356Z,14.77
2024-01-04T10:19:08.258Z,14.76
2024-01-04T10:24:14.804Z,14.77
2024-01-04T10:29:22.129Z,14.78
2024-01-04T10:47:43.985Z,14.76
2024-01-04T10:52:49.128Z,14.77
2024-01-04T10:57:52.970Z,14.77
2024-01-04T11:02:59.161Z,14.73
2024-01-04T11:08:03.362Z,14.74
2024-01-04T11:13:07.133Z,14.73
2024-01-04T11:18:23.412Z,14.74
2024-01-04T11:23:38.153Z,14.73
2024-01-04T11:28:42.213Z,14.72
2024-01-04T11:33:51.384Z,14.72
2024-01-04T11:38:58.564Z,14.75
2024-01-04T11:44:02.159Z,14.75
2024-01-04T11:49:08.456Z,14.72
2024-01-04T11:54:12.480Z,14.73
2024-01-04T11:59:19.639Z,14.72
2024-01-04T12:04:25.109Z,14.74
2024-01-04T12:09:29.298Z,14.71
2024-01-04T12:14:35.879Z,14.72
2024-01-04T12:19:41.045Z,14.71
2024-01-04T12:38:27.902Z,14.70
2024-01-04T12:57:20.718Z,14.66
2024-01-04T13:02:26.837Z,14.65
2024-01-04T13:07:30.427Z,14.68
2024-01-04T13:12:35.524Z,14.63
2024-01-04T13:17:39.165Z,14.64
2024-01-04T13:22:45.751Z,14.66
2024-01-04T13:27:51.436Z,14.68
2024-01-04T13:32:55.220Z,14.69
2024-01-04T13:37:59.497Z,14.70
2024-01-04T13:43:04.745Z,14.72
2024-01-04T13:48:08.994Z,14.74
2024-01-04T13:53:13.933Z,14.74
2024-01-04T13:58:20.467Z,14.75
2024-01-04T14:03:24.230Z,14.75
2024-01-04T14:08:29.806Z,14.77
2024-01-04T14:13:34.955Z,14.77
2024-01-04T14:18:38.596Z,14.78
2024-01-04T14:23:42.309Z,14.78
2024-01-04T14:28:47.318Z,14.78
2024-01-04T14:33:51.104Z,14.78
2024-01-04T14:38:54.839Z,14.78
2024-01-04T14:43:59.991Z,14.78
2024-01-04T14:49:04.454Z,14.76
2024-01-04T14:54:08.383Z,14.78
2024-01-04T14:59:14.765Z,14.78
2024-01-04T15:04:18.423Z,14.75
2024-01-04T15:09:22.175Z,14.76
2024-01-04T15:14:27.246Z,14.76
2024-01-04T15:19:30.965Z,14.76
2024-01-04T15:24:34.671Z,14.76
2024-01-04T15:29:41.026Z,14.75
2024-01-04T15:34:44.710Z,14.73
2024-01-04T15:39:48.333Z,14.71
2024-01-04T15:44:53.369Z,14.73
2024-01-04T15:49:57.105Z,14.71
2024-01-04T15:55:00.812Z,14.71
2024-01-04T16:00:06.872Z,14.70
2024-01-04T16:05:11.549Z,14.71
2024-01-04T16:10:16.119Z,14.70
2024-01-04T16:15:22.519Z,14.70
2024-01-04T16:20:33.345Z,14.69
2024-01-04T16:25:40.533Z,14.69
2024-01-04T16:30:45.707Z,14.68
2024-01-04T16:35:49.731Z,14.68
2024-01-04T16:40:53.607Z,14.68
2024-01-04T16:45:58.597Z,14.67
2024-01-04T16:51:02.290Z,14.67
2024-01-04T18:49:02.562Z,14.44
2024-01-04T18:54:06.525Z,14.45
2024-01-04T18:59:11.973Z,14.48
2024-01-04T19:04:17.168Z,14.50
2024-01-04T19:09:21.140Z,14.52
2024-01-04T19:14:24.751Z,14.54
2024-01-04T19:19:30.121Z,14.52
2024-01-04T19:24:33.856Z,14.53
2024-01-04T19:29:37.675Z,14.53
2024-01-04T19:34:42.708Z,14.54
2024-01-04T19:39:46.310Z,14.58
2024-01-04T19:44:49.921Z,14.56
2024-01-04T19:49:55.101Z,14.56
2024-01-04T19:54:58.751Z,14.56
2024-01-04T20:00:02.409Z,14.56
2024-01-04T20:05:08.485Z,14.57
2024-01-04T20:10:12.635Z,14.56
2024-01-04T20:15:16.459Z,14.56
2024-01-04T20:20:21.545Z,14.58
2024-01-04T20:25:25.266Z,14.58
2024-01-04T20:30:29.053Z,14.59
2024-01-04T20:35:34.346Z,14.59
2024-01-04T20:40:38.069Z,14.57
2024-01-04T20:45:42.004Z,14.56
2024-01-04T20:50:48.069Z,14.57
2024-01-04T20:55:51.716Z,14.56
2024-01-04T21:00:55.346Z,14.58
2024-01-04T21:06:00.550Z,14.56
2024-01-04T21:11:04.262Z,14.58
2024-01-04T21:16:08.206Z,14.56
2024-01-04T21:21:13.248Z,14.57
2024-01-04T21:26:16.899Z,14.55
2024-01-04T21:31:20.580Z,14.58
2024-01-04T21:36:28.260Z,14.58
2024-01-04T21:41:32.247Z,14.57
2024-01-04T21:46:35.840Z,14.56
2024-01-04T21:51:40.867Z,14.56
2024-01-04T21:56:44.707Z,14.57
2024-01-04T22:01:48.442Z,14.55
2024-01-04T22:06:54.036Z,14.57
2024-01-04T22:12:00.716Z,14.56
2024-01-04T22:17:05.596Z,14.58
2024-01-04T22:22:10.678Z,14.58
2024-01-04T22:27:14.294Z,14.58
2024-01-04T22:32:17.893Z,14.56
2024-01-04T22:37:22.903Z,14.55
2024-01-04T22:42:26.548Z,14.56
2024-01-04T22:47:54.069Z,14.56
2024-01-04T22:53:00.127Z,14.54
2024-01-04T22:58:04.176Z,14.55
2024-01-04T23:03:07.868Z,14.54
2024-01-04T23:08:12.920Z,14.55
2024-01-04T23:13:16.488Z,14.54
2024-01-04T23:18:20.362Z,14.53
2024-01-04T23:23:25.515Z,14.52
2024-01-04T23:28:29.107Z,14.52
2024-01-04T23:33:37.401Z,14.53
2024-01-04T23:38:47.566Z,14.52
2024-01-04T23:43:51.132Z,14.54
2024-01-04T23:48:54.820Z,14.51
2024-01-04T23:54:00.000Z,14.50
2024-01-04T23:59:03.618Z,14.52
